sensor_id;sensor_type;location;lat;lon;timestamp;P1;durP1;ratioP1;P2;durP2;ratioP2
15340;SDS011;7770;52.158;5.372;2023-08-30T00:00:29;10.40;;;9.50;;
15340;SDS011;7770;52.158;5.372;2023-08-30T00:03:16;10.30;;;9.40;;
15340;SDS011;7770;52.158;5.372;2023-08-30T00:06:02;11.13;;;10.13;;
15340;SDS011;7770;52.158;5.372;2023-08-30T00:08:50;11.70;;;10.60;;
15340;SDS011;7770;52.158;5.372;2023-08-30T00:11:36;12.47;;;11.33;;
15340;SDS011;7770;52.158;5.372;2023-08-30T00:14:22;13.00;;;11.80;;
15340;SDS011;7770;52.158;5.372;2023-08-30T00:17:08;12.93;;;11.73;;
15340;SDS011;7770;52.158;5.372;2023-08-30T00:19:54;12.77;;;11.57;;
15340;SDS011;7770;52.158;5.372;2023-08-30T00:22:40;13.83;;;12.43;;
15340;SDS011;7770;52.158;5.372;2023-08-30T00:25:26;13.00;;;11.90;;
15340;SDS011;7770;52.158;5.372;2023-08-30T00:28:12;13.43;;;12.23;;
15340;SDS011;7770;52.158;5.372;2023-08-30T00:30:58;14.30;;;12.53;;
15340;SDS011;7770;52.158;5.372;2023-08-30T00:33:44;12.87;;;11.67;;
15340;SDS011;7770;52.158;5.372;2023-08-30T00:36:30;12.30;;;11.10;;
15340;SDS011;7770;52.158;5.372;2023-08-30T00:39:17;12.43;;;11.23;;
15340;SDS011;7770;52.158;5.372;2023-08-30T00:42:03;11.63;;;10.63;;
15340;SDS011;7770;52.158;5.372;2023-08-30T00:44:51;11.20;;;10.20;;
15340;SDS011;7770;52.158;5.372;2023-08-30T00:47:37;11.27;;;10.20;;
15340;SDS011;7770;52.158;5.372;2023-08-30T00:50:23;11.20;;;10.20;;
15340;SDS011;7770;52.158;5.372;2023-08-30T00:53:09;10.60;;;9.60;;
15340;SDS011;7770;52.158;5.372;2023-08-30T00:55:56;10.63;;;9.63;;
15340;SDS011;7770;52.158;5.372;2023-08-30T00:58:42;10.73;;;9.73;;
15340;SDS011;7770;52.158;5.372;2023-08-30T01:01:28;10.43;;;9.43;;
15340;SDS011;7770;52.158;5.372;2023-08-30T01:04:14;10.83;;;9.83;;
15340;SDS011;7770;52.158;5.372;2023-08-30T01:07:00;11.37;;;10.37;;
15340;SDS011;7770;52.158;5.372;2023-08-30T01:09:46;11.23;;;10.20;;
15340;SDS011;7770;52.158;5.372;2023-08-30T01:12:43;12.87;;;10.20;;
15340;SDS011;7770;52.158;5.372;2023-08-30T01:15:38;11.00;;;10.00;;
15340;SDS011;7770;52.158;5.372;2023-08-30T01:18:29;11.40;;;10.40;;
15340;SDS011;7770;52.158;5.372;2023-08-30T01:21:34;12.07;;;10.77;;
15340;SDS011;7770;52.158;5.372;2023-08-30T01:24:32;11.93;;;10.73;;
15340;SDS011;7770;52.158;5.372;2023-08-30T01:27:37;11.73;;;10.63;;
15340;SDS011;7770;52.158;5.372;2023-08-30T01:30:25;11.87;;;10.57;;
15340;SDS011;7770;52.158;5.372;2023-08-30T01:33:13;12.23;;;11.13;;
15340;SDS011;7770;52.158;5.372;2023-08-30T01:36:01;11.93;;;10.73;;
15340;SDS011;7770;52.158;5.372;2023-08-30T01:38:49;11.57;;;10.57;;
15340;SDS011;7770;52.158;5.372;2023-08-30T01:41:35;12.50;;;11.20;;
15340;SDS011;7770;52.158;5.372;2023-08-30T01:44:22;11.70;;;10.50;;
15340;SDS011;7770;52.158;5.372;2023-08-30T01:47:08;11.60;;;10.47;;
15340;SDS011;7770;52.158;5.372;2023-08-30T01:49:54;11.67;;;10.37;;
15340;SDS011;7770;52.158;5.372;2023-08-30T01:52:42;12.50;;;11.30;;
15340;SDS011;7770;52.158;5.372;2023-08-30T01:55:29;11.50;;;10.43;;
15340;SDS011;7770;52.158;5.372;2023-08-30T01:58:16;12.60;;;11.40;;
15340;SDS011;7770;52.158;5.372;2023-08-30T02:01:02;12.97;;;11.67;;
15340;SDS011;7770;52.158;5.372;2023-08-30T02:03:48;13.07;;;11.60;;
15340;SDS011;7770;52.158;5.372;2023-08-30T02:06:41;12.63;;;11.43;;
15340;SDS011;7770;52.158;5.372;2023-08-30T02:12:44;14.60;;;12.23;;
15340;SDS011;7770;52.158;5.372;2023-08-30T02:15:33;13.00;;;11.83;;
15340;SDS011;7770;52.158;5.372;2023-08-30T02:18:21;14.03;;;12.33;;
15340;SDS011;7770;52.158;5.372;2023-08-30T02:21:09;14.40;;;13.00;;
15340;SDS011;7770;52.158;5.372;2023-08-30T02:23:55;14.57;;;13.07;;
15340;SDS011;7770;52.158;5.372;2023-08-30T02:26:41;13.83;;;12.53;;
15340;SDS011;7770;52.158;5.372;2023-08-30T02:29:27;14.40;;;12.90;;
15340;SDS011;7770;52.158;5.372;2023-08-30T02:32:13;14.47;;;12.97;;
15340;SDS011;7770;52.158;5.372;2023-08-30T02:35:02;14.67;;;13.27;;
15340;SDS011;7770;52.158;5.372;2023-08-30T02:37:48;15.17;;;13.60;;
15340;SDS011;7770;52.158;5.372;2023-08-30T02:40:34;14.70;;;13.30;;
15340;SDS011;7770;52.158;5.372;2023-08-30T02:43:20;16.37;;;14.77;;
15340;SDS011;7770;52.158;5.372;2023-08-30T02:46:07;16.17;;;14.63;;
15340;SDS011;7770;52.158;5.372;2023-08-30T02:48:53;16.03;;;14.40;;
15340;SDS011;7770;52.158;5.372;2023-08-30T02:51:40;16.63;;;14.23;;
15340;SDS011;7770;52.158;5.372;2023-08-30T02:54:26;15.67;;;14.23;;
15340;SDS011;7770;52.158;5.372;2023-08-30T02:57:12;16.60;;;14.90;;
15340;SDS011;7770;52.158;5.372;2023-08-30T02:59:58;16.60;;;14.90;;
15340;SDS011;7770;52.158;5.372;2023-08-30T03:02:44;17.20;;;15.40;;
15340;SDS011;7770;52.158;5.372;2023-08-30T03:05:30;17.40;;;15.60;;
15340;SDS011;7770;52.158;5.372;2023-08-30T03:08:16;18.23;;;16.30;;
15340;SDS011;7770;52.158;5.372;2023-08-30T03:11:09;18.30;;;16.40;;
15340;SDS011;7770;52.158;5.372;2023-08-30T03:13:56;17.90;;;16.13;;
15340;SDS011;7770;52.158;5.372;2023-08-30T03:16:41;19.20;;;17.10;;
15340;SDS011;7770;52.158;5.372;2023-08-30T03:19:30;18.37;;;16.63;;
15340;SDS011;7770;52.158;5.372;2023-08-30T03:22:16;17.73;;;16.03;;
15340;SDS011;7770;52.158;5.372;2023-08-30T03:25:02;19.03;;;17.03;;
15340;SDS011;7770;52.158;5.372;2023-08-30T03:27:48;18.57;;;16.77;;
15340;SDS011;7770;52.158;5.372;2023-08-30T03:30:34;19.13;;;17.23;;
15340;SDS011;7770;52.158;5.372;2023-08-30T03:33:20;18.57;;;16.67;;
15340;SDS011;7770;52.158;5.372;2023-08-30T03:36:10;19.40;;;17.33;;
15340;SDS011;7770;52.158;5.372;2023-08-30T03:38:57;19.73;;;17.67;;
15340;SDS011;7770;52.158;5.372;2023-08-30T03:41:43;18.63;;;16.73;;
15340;SDS011;7770;52.158;5.372;2023-08-30T03:44:30;18.57;;;16.77;;
15340;SDS011;7770;52.158;5.372;2023-08-30T03:47:16;18.87;;;16.60;;
15340;SDS011;7770;52.158;5.372;2023-08-30T03:50:02;19.53;;;17.53;;
15340;SDS011;7770;52.158;5.372;2023-08-30T03:52:49;19.10;;;17.10;;
15340;SDS011;7770;52.158;5.372;2023-08-30T03:55:35;19.93;;;16.87;;
15340;SDS011;7770;52.158;5.372;2023-08-30T03:58:21;18.97;;;17.07;;
15340;SDS011;7770;52.158;5.372;2023-08-30T04:01:07;18.07;;;16.27;;
15340;SDS011;7770;52.158;5.372;2023-08-30T04:03:53;18.30;;;16.50;;
15340;SDS011;7770;52.158;5.372;2023-08-30T04:06:39;18.77;;;16.90;;
15340;SDS011;7770;52.158;5.372;2023-08-30T04:09:25;19.13;;;17.13;;
15340;SDS011;7770;52.158;5.372;2023-08-30T04:12:11;19.47;;;17.47;;
15340;SDS011;7770;52.158;5.372;2023-08-30T04:14:57;19.37;;;17.33;;
15340;SDS011;7770;52.158;5.372;2023-08-30T04:17:43;19.63;;;17.63;;
15340;SDS011;7770;52.158;5.372;2023-08-30T04:20:29;18.83;;;16.87;;
15340;SDS011;7770;52.158;5.372;2023-08-30T04:23:16;19.10;;;17.20;;
15340;SDS011;7770;52.158;5.372;2023-08-30T04:26:02;19.07;;;16.73;;
15340;SDS011;7770;52.158;5.372;2023-08-30T04:28:48;19.67;;;17.43;;
15340;SDS011;7770;52.158;5.372;2023-08-30T04:31:34;18.40;;;16.50;;
15340;SDS011;7770;52.158;5.372;2023-08-30T04:34:20;20.03;;;17.73;;
15340;SDS011;7770;52.158;5.372;2023-08-30T04:37:07;18.47;;;16.43;;
15340;SDS011;7770;52.158;5.372;2023-08-30T04:39:53;19.27;;;17.27;;
15340;SDS011;7770;52.158;5.372;2023-08-30T04:42:40;19.80;;;16.90;;
15340;SDS011;7770;52.158;5.372;2023-08-30T04:45:26;18.80;;;16.77;;
15340;SDS011;7770;52.158;5.372;2023-08-30T04:48:13;17.93;;;16.07;;
15340;SDS011;7770;52.158;5.372;2023-08-30T04:51:00;20.07;;;16.73;;
15340;SDS011;7770;52.158;5.372;2023-08-30T04:53:48;18.07;;;16.27;;
15340;SDS011;7770;52.158;5.372;2023-08-30T04:56:34;18.07;;;16.27;;
15340;SDS011;7770;52.158;5.372;2023-08-30T04:59:20;18.23;;;16.37;;
15340;SDS011;7770;52.158;5.372;2023-08-30T05:02:06;18.47;;;16.57;;
15340;SDS011;7770;52.158;5.372;2023-08-30T05:04:52;18.80;;;16.87;;
15340;SDS011;7770;52.158;5.372;2023-08-30T05:07:38;18.13;;;16.30;;
15340;SDS011;7770;52.158;5.372;2023-08-30T05:10:24;18.77;;;16.80;;
15340;SDS011;7770;52.158;5.372;2023-08-30T05:13:10;18.93;;;17.00;;
15340;SDS011;7770;52.158;5.372;2023-08-30T05:15:56;19.77;;;17.27;;
15340;SDS011;7770;52.158;5.372;2023-08-30T05:18:42;18.13;;;16.30;;
15340;SDS011;7770;52.158;5.372;2023-08-30T05:21:28;18.33;;;16.40;;
15340;SDS011;7770;52.158;5.372;2023-08-30T05:24:14;18.50;;;16.57;;
15340;SDS011;7770;52.158;5.372;2023-08-30T05:27:00;18.70;;;16.43;;
15340;SDS011;7770;52.158;5.372;2023-08-30T05:29:48;18.77;;;16.77;;
15340;SDS011;7770;52.158;5.372;2023-08-30T05:32:34;18.97;;;16.60;;
15340;SDS011;7770;52.158;5.372;2023-08-30T05:35:20;18.67;;;16.67;;
15340;SDS011;7770;52.158;5.372;2023-08-30T05:38:06;20.17;;;18.13;;
15340;SDS011;7770;52.158;5.372;2023-08-30T05:40:52;18.93;;;16.83;;
15340;SDS011;7770;52.158;5.372;2023-08-30T05:43:37;18.63;;;16.73;;
15340;SDS011;7770;52.158;5.372;2023-08-30T05:46:24;18.33;;;16.43;;
15340;SDS011;7770;52.158;5.372;2023-08-30T05:49:10;18.43;;;16.63;;
15340;SDS011;7770;52.158;5.372;2023-08-30T05:51:56;17.97;;;16.17;;
15340;SDS011;7770;52.158;5.372;2023-08-30T05:54:42;19.33;;;17.20;;
15340;SDS011;7770;52.158;5.372;2023-08-30T05:57:29;17.90;;;16.10;;
15340;SDS011;7770;52.158;5.372;2023-08-30T06:00:18;18.03;;;16.13;;
15340;SDS011;7770;52.158;5.372;2023-08-30T06:03:05;17.47;;;15.73;;
15340;SDS011;7770;52.158;5.372;2023-08-30T06:05:51;16.37;;;14.77;;
15340;SDS011;7770;52.158;5.372;2023-08-30T06:08:38;18.10;;;15.00;;
15340;SDS011;7770;52.158;5.372;2023-08-30T06:11:24;16.53;;;14.73;;
15340;SDS011;7770;52.158;5.372;2023-08-30T06:14:10;15.40;;;13.80;;
15340;SDS011;7770;52.158;5.372;2023-08-30T06:16:56;16.63;;;14.93;;
15340;SDS011;7770;52.158;5.372;2023-08-30T06:19:42;17.77;;;15.27;;
15340;SDS011;7770;52.158;5.372;2023-08-30T06:22:28;16.77;;;15.10;;
15340;SDS011;7770;52.158;5.372;2023-08-30T06:25:14;19.40;;;16.40;;
15340;SDS011;7770;52.158;5.372;2023-08-30T06:28:00;18.57;;;15.97;;
15340;SDS011;7770;52.158;5.372;2023-08-30T06:30:47;18.13;;;16.30;;
15340;SDS011;7770;52.158;5.372;2023-08-30T06:33:34;18.80;;;16.90;;
15340;SDS011;7770;52.158;5.372;2023-08-30T06:36:21;19.43;;;17.43;;
15340;SDS011;7770;52.158;5.372;2023-08-30T06:39:08;23.10;;;18.97;;
15340;SDS011;7770;52.158;5.372;2023-08-30T06:41:54;21.50;;;19.17;;
15340;SDS011;7770;52.158;5.372;2023-08-30T06:44:40;20.83;;;18.73;;
15340;SDS011;7770;52.158;5.372;2023-08-30T06:47:26;21.30;;;19.30;;
15340;SDS011;7770;52.158;5.372;2023-08-30T06:50:12;22.00;;;19.73;;
15340;SDS011;7770;52.158;5.372;2023-08-30T06:52:58;21.70;;;19.50;;
15340;SDS011;7770;52.158;5.372;2023-08-30T06:55:44;23.97;;;21.40;;
15340;SDS011;7770;52.158;5.372;2023-08-30T06:58:30;25.10;;;21.40;;
15340;SDS011;7770;52.158;5.372;2023-08-30T07:01:16;24.53;;;22.13;;
15340;SDS011;7770;52.158;5.372;2023-08-30T07:04:02;22.77;;;20.30;;
15340;SDS011;7770;52.158;5.372;2023-08-30T07:06:48;26.40;;;22.53;;
15340;SDS011;7770;52.158;5.372;2023-08-30T07:09:35;25.93;;;23.03;;
15340;SDS011;7770;52.158;5.372;2023-08-30T07:12:21;24.43;;;21.60;;
15340;SDS011;7770;52.158;5.372;2023-08-30T07:15:07;27.20;;;24.30;;
15340;SDS011;7770;52.158;5.372;2023-08-30T07:17:54;26.03;;;23.37;;
15340;SDS011;7770;52.158;5.372;2023-08-30T07:20:40;26.10;;;23.40;;
15340;SDS011;7770;52.158;5.372;2023-08-30T07:23:26;25.93;;;23.13;;
15340;SDS011;7770;52.158;5.372;2023-08-30T07:26:12;28.73;;;23.87;;
15340;SDS011;7770;52.158;5.372;2023-08-30T07:28:58;26.87;;;23.97;;
15340;SDS011;7770;52.158;5.372;2023-08-30T07:31:44;26.83;;;24.03;;
15340;SDS011;7770;52.158;5.372;2023-08-30T07:34:30;28.17;;;23.90;;
15340;SDS011;7770;52.158;5.372;2023-08-30T07:37:17;26.77;;;24.03;;
15340;SDS011;7770;52.158;5.372;2023-08-30T07:40:07;27.30;;;24.40;;
15340;SDS011;7770;52.158;5.372;2023-08-30T07:42:54;24.97;;;22.10;;
15340;SDS011;7770;52.158;5.372;2023-08-30T07:45:40;24.03;;;21.63;;
15340;SDS011;7770;52.158;5.372;2023-08-30T07:48:26;24.40;;;21.73;;
15340;SDS011;7770;52.158;5.372;2023-08-30T07:51:12;23.13;;;20.73;;
15340;SDS011;7770;52.158;5.372;2023-08-30T07:53:58;24.27;;;21.70;;
15340;SDS011;7770;52.158;5.372;2023-08-30T07:56:44;23.00;;;20.60;;
15340;SDS011;7770;52.158;5.372;2023-08-30T07:59:32;22.40;;;20.00;;
15340;SDS011;7770;52.158;5.372;2023-08-30T08:02:20;22.37;;;20.10;;
15340;SDS011;7770;52.158;5.372;2023-08-30T08:05:06;22.37;;;20.27;;
15340;SDS011;7770;52.158;5.372;2023-08-30T08:07:53;22.53;;;19.87;;
15340;SDS011;7770;52.158;5.372;2023-08-30T08:10:39;21.77;;;19.47;;
15340;SDS011;7770;52.158;5.372;2023-08-30T08:13:25;20.90;;;18.50;;
15340;SDS011;7770;52.158;5.372;2023-08-30T08:16:11;20.90;;;18.70;;
15340;SDS011;7770;52.158;5.372;2023-08-30T08:18:57;19.97;;;17.93;;
15340;SDS011;7770;52.158;5.372;2023-08-30T08:21:46;18.53;;;16.73;;
15340;SDS011;7770;52.158;5.372;2023-08-30T08:24:32;17.37;;;15.77;;
15340;SDS011;7770;52.158;5.372;2023-08-30T08:27:18;17.40;;;15.60;;
15340;SDS011;7770;52.158;5.372;2023-08-30T08:30:04;17.10;;;15.47;;
15340;SDS011;7770;52.158;5.372;2023-08-30T08:32:51;16.53;;;14.93;;
15340;SDS011;7770;52.158;5.372;2023-08-30T08:35:37;17.80;;;15.37;;
15340;SDS011;7770;52.158;5.372;2023-08-30T08:38:23;17.57;;;15.77;;
15340;SDS011;7770;52.158;5.372;2023-08-30T08:41:10;16.43;;;14.83;;
15340;SDS011;7770;52.158;5.372;2023-08-30T08:43:58;15.80;;;13.90;;
15340;SDS011;7770;52.158;5.372;2023-08-30T08:46:45;14.73;;;13.33;;
15340;SDS011;7770;52.158;5.372;2023-08-30T08:49:32;15.57;;;13.97;;
15340;SDS011;7770;52.158;5.372;2023-08-30T08:52:18;14.70;;;13.20;;
15340;SDS011;7770;52.158;5.372;2023-08-30T08:55:04;15.93;;;14.33;;
15340;SDS011;7770;52.158;5.372;2023-08-30T08:57:50;14.40;;;13.00;;
15340;SDS011;7770;52.158;5.372;2023-08-30T09:00:36;15.60;;;13.87;;
15340;SDS011;7770;52.158;5.372;2023-08-30T09:03:23;14.63;;;13.33;;
15340;SDS011;7770;52.158;5.372;2023-08-30T09:06:10;15.60;;;14.10;;
15340;SDS011;7770;52.158;5.372;2023-08-30T09:08:56;14.87;;;13.47;;
15340;SDS011;7770;52.158;5.372;2023-08-30T09:11:42;14.87;;;13.37;;
15340;SDS011;7770;52.158;5.372;2023-08-30T09:14:28;14.60;;;13.20;;
15340;SDS011;7770;52.158;5.372;2023-08-30T09:17:14;13.37;;;12.17;;
15340;SDS011;7770;52.158;5.372;2023-08-30T09:20:07;15.70;;;14.20;;
15340;SDS011;7770;52.158;5.372;2023-08-30T09:22:53;15.40;;;13.90;;
15340;SDS011;7770;52.158;5.372;2023-08-30T09:25:39;15.57;;;14.07;;
15340;SDS011;7770;52.158;5.372;2023-08-30T09:28:26;16.00;;;14.50;;
15340;SDS011;7770;52.158;5.372;2023-08-30T09:31:16;15.60;;;14.20;;
15340;SDS011;7770;52.158;5.372;2023-08-30T09:34:04;15.50;;;14.07;;
15340;SDS011;7770;52.158;5.372;2023-08-30T09:36:51;16.60;;;15.00;;
15340;SDS011;7770;52.158;5.372;2023-08-30T09:39:47;15.07;;;13.77;;
15340;SDS011;7770;52.158;5.372;2023-08-30T09:42:35;15.30;;;13.97;;
15340;SDS011;7770;52.158;5.372;2023-08-30T09:45:27;15.37;;;13.93;;
15340;SDS011;7770;52.158;5.372;2023-08-30T09:48:17;16.47;;;14.97;;
15340;SDS011;7770;52.158;5.372;2023-08-30T09:51:09;16.10;;;14.60;;
15340;SDS011;7770;52.158;5.372;2023-08-30T09:53:58;17.30;;;15.80;;
15340;SDS011;7770;52.158;5.372;2023-08-30T09:56:50;18.00;;;16.33;;
15340;SDS011;7770;52.158;5.372;2023-08-30T09:59:39;18.90;;;17.27;;
15340;SDS011;7770;52.158;5.372;2023-08-30T10:02:25;17.63;;;16.13;;
15340;SDS011;7770;52.158;5.372;2023-08-30T10:05:11;18.57;;;16.97;;
15340;SDS011;7770;52.158;5.372;2023-08-30T10:07:58;18.70;;;17.00;;
15340;SDS011;7770;52.158;5.372;2023-08-30T10:10:44;20.40;;;18.70;;
15340;SDS011;7770;52.158;5.372;2023-08-30T10:13:30;21.23;;;19.40;;
15340;SDS011;7770;52.158;5.372;2023-08-30T10:16:21;21.40;;;19.60;;
15340;SDS011;7770;52.158;5.372;2023-08-30T10:19:16;20.93;;;19.13;;
15340;SDS011;7770;52.158;5.372;2023-08-30T10:22:07;20.30;;;18.50;;
15340;SDS011;7770;52.158;5.372;2023-08-30T10:25:07;20.87;;;19.03;;
15340;SDS011;7770;52.158;5.372;2023-08-30T10:27:57;17.67;;;16.20;;
15340;SDS011;7770;52.158;5.372;2023-08-30T10:30:44;13.43;;;12.33;;
15340;SDS011;7770;52.158;5.372;2023-08-30T10:33:30;11.37;;;10.47;;
15340;SDS011;7770;52.158;5.372;2023-08-30T10:36:20;10.07;;;9.27;;
15340;SDS011;7770;52.158;5.372;2023-08-30T10:39:11;9.87;;;9.07;;
15340;SDS011;7770;52.158;5.372;2023-08-30T10:41:58;8.23;;;7.63;;
15340;SDS011;7770;52.158;5.372;2023-08-30T10:44:48;7.90;;;7.20;;
15340;SDS011;7770;52.158;5.372;2023-08-30T10:47:41;7.07;;;6.47;;
15340;SDS011;7770;52.158;5.372;2023-08-30T10:50:28;7.15;;;6.55;;
15340;SDS011;7770;52.158;5.372;2023-08-30T10:53:16;6.43;;;5.85;;
15340;SDS011;7770;52.158;5.372;2023-08-30T10:56:02;6.47;;;4.70;;
15340;SDS011;7770;52.158;5.372;2023-08-30T10:58:57;7.15;;;4.38;;
15340;SDS011;7770;52.158;5.372;2023-08-30T11:01:44;6.47;;;4.60;;
15340;SDS011;7770;52.158;5.372;2023-08-30T11:04:32;6.30;;;5.10;;
15340;SDS011;7770;52.158;5.372;2023-08-30T11:07:18;7.60;;;4.78;;
15340;SDS011;7770;52.158;5.372;2023-08-30T11:10:05;5.43;;;4.72;;
15340;SDS011;7770;52.158;5.372;2023-08-30T11:12:51;5.63;;;4.30;;
15340;SDS011;7770;52.158;5.372;2023-08-30T11:15:37;6.00;;;4.57;;
15340;SDS011;7770;52.158;5.372;2023-08-30T11:18:23;6.47;;;4.80;;
15340;SDS011;7770;52.158;5.372;2023-08-30T11:21:09;6.97;;;4.63;;
15340;SDS011;7770;52.158;5.372;2023-08-30T11:23:57;6.90;;;4.17;;
15340;SDS011;7770;52.158;5.372;2023-08-30T11:26:43;10.83;;;4.43;;
15340;SDS011;7770;52.158;5.372;2023-08-30T11:29:30;6.10;;;3.90;;
15340;SDS011;7770;52.158;5.372;2023-08-30T11:32:16;6.03;;;4.43;;
15340;SDS011;7770;52.158;5.372;2023-08-30T11:35:02;6.60;;;4.67;;
15340;SDS011;7770;52.158;5.372;2023-08-30T11:37:49;6.73;;;4.53;;
15340;SDS011;7770;52.158;5.372;2023-08-30T11:40:35;7.40;;;4.87;;
15340;SDS011;7770;52.158;5.372;2023-08-30T11:43:22;10.50;;;4.87;;
15340;SDS011;7770;52.158;5.372;2023-08-30T11:46:08;7.13;;;4.87;;
15340;SDS011;7770;52.158;5.372;2023-08-30T11:48:55;7.43;;;4.30;;
15340;SDS011;7770;52.158;5.372;2023-08-30T11:51:41;7.90;;;4.40;;
15340;SDS011;7770;52.158;5.372;2023-08-30T11:54:28;8.70;;;4.90;;
15340;SDS011;7770;52.158;5.372;2023-08-30T11:57:14;9.40;;;5.10;;
15340;SDS011;7770;52.158;5.372;2023-08-30T12:00:06;10.10;;;4.57;;
15340;SDS011;7770;52.158;5.372;2023-08-30T12:03:07;7.57;;;4.30;;
15340;SDS011;7770;52.158;5.372;2023-08-30T12:05:53;8.10;;;5.13;;
15340;SDS011;7770;52.158;5.372;2023-08-30T12:08:39;8.77;;;4.53;;
15340;SDS011;7770;52.158;5.372;2023-08-30T12:11:25;9.57;;;4.57;;
15340;SDS011;7770;52.158;5.372;2023-08-30T12:14:13;9.40;;;4.37;;
15340;SDS011;7770;52.158;5.372;2023-08-30T12:17:00;6.17;;;4.07;;
15340;SDS011;7770;52.158;5.372;2023-08-30T12:19:46;8.93;;;3.90;;
15340;SDS011;7770;52.158;5.372;2023-08-30T12:22:38;6.80;;;4.17;;
15340;SDS011;7770;52.158;5.372;2023-08-30T12:25:25;8.60;;;4.10;;
15340;SDS011;7770;52.158;5.372;2023-08-30T12:28:12;11.23;;;4.07;;
15340;SDS011;7770;52.158;5.372;2023-08-30T12:30:58;6.37;;;4.00;;
15340;SDS011;7770;52.158;5.372;2023-08-30T12:33:44;9.80;;;3.90;;
15340;SDS011;7770;52.158;5.372;2023-08-30T12:36:30;10.40;;;4.03;;
15340;SDS011;7770;52.158;5.372;2023-08-30T12:39:17;9.23;;;4.30;;
15340;SDS011;7770;52.158;5.372;2023-08-30T12:42:03;8.30;;;4.10;;
15340;SDS011;7770;52.158;5.372;2023-08-30T12:44:49;8.47;;;3.90;;
15340;SDS011;7770;52.158;5.372;2023-08-30T12:47:35;7.10;;;4.07;;
15340;SDS011;7770;52.158;5.372;2023-08-30T12:50:21;7.47;;;3.73;;
15340;SDS011;7770;52.158;5.372;2023-08-30T12:53:07;7.03;;;3.87;;
15340;SDS011;7770;52.158;5.372;2023-08-30T12:55:53;7.10;;;3.90;;
15340;SDS011;7770;52.158;5.372;2023-08-30T12:58:40;8.23;;;4.40;;
15340;SDS011;7770;52.158;5.372;2023-08-30T13:01:26;9.47;;;3.80;;
15340;SDS011;7770;52.158;5.372;2023-08-30T13:04:12;7.67;;;3.67;;
15340;SDS011;7770;52.158;5.372;2023-08-30T13:06:58;9.13;;;3.87;;
15340;SDS011;7770;52.158;5.372;2023-08-30T13:09:44;6.50;;;3.87;;
15340;SDS011;7770;52.158;5.372;2023-08-30T13:12:30;8.17;;;3.60;;
15340;SDS011;7770;52.158;5.372;2023-08-30T13:15:16;7.00;;;3.97;;
15340;SDS011;7770;52.158;5.372;2023-08-30T13:18:02;7.53;;;3.70;;
15340;SDS011;7770;52.158;5.372;2023-08-30T13:20:48;9.53;;;3.90;;
15340;SDS011;7770;52.158;5.372;2023-08-30T13:23:34;9.23;;;4.00;;
15340;SDS011;7770;52.158;5.372;2023-08-30T13:26:20;7.20;;;3.63;;
15340;SDS011;7770;52.158;5.372;2023-08-30T13:29:06;8.00;;;4.07;;
15340;SDS011;7770;52.158;5.372;2023-08-30T13:31:52;7.13;;;3.60;;
15340;SDS011;7770;52.158;5.372;2023-08-30T13:34:38;7.27;;;3.73;;
15340;SDS011;7770;52.158;5.372;2023-08-30T13:37:24;6.40;;;3.80;;
15340;SDS011;7770;52.158;5.372;2023-08-30T13:40:10;7.40;;;3.67;;
15340;SDS011;7770;52.158;5.372;2023-08-30T13:42:57;6.93;;;3.50;;
15340;SDS011;7770;52.158;5.372;2023-08-30T13:45:43;6.73;;;3.20;;
15340;SDS011;7770;52.158;5.372;2023-08-30T13:48:32;7.30;;;3.40;;
15340;SDS011;7770;52.158;5.372;2023-08-30T13:51:25;7.23;;;3.40;;
15340;SDS011;7770;52.158;5.372;2023-08-30T13:54:11;7.00;;;3.83;;
15340;SDS011;7770;52.158;5.372;2023-08-30T13:56:57;6.23;;;3.67;;
15340;SDS011;7770;52.158;5.372;2023-08-30T13:59:44;7.80;;;3.13;;
15340;SDS011;7770;52.158;5.372;2023-08-30T14:02:30;6.57;;;3.27;;
15340;SDS011;7770;52.158;5.372;2023-08-30T14:05:16;4.97;;;3.03;;
15340;SDS011;7770;52.158;5.372;2023-08-30T14:08:02;4.97;;;2.93;;
15340;SDS011;7770;52.158;5.372;2023-08-30T14:10:49;4.97;;;2.80;;
15340;SDS011;7770;52.158;5.372;2023-08-30T14:13:35;4.63;;;3.00;;
15340;SDS011;7770;52.158;5.372;2023-08-30T14:16:21;4.30;;;3.07;;
15340;SDS011;7770;52.158;5.372;2023-08-30T14:19:07;4.83;;;2.90;;
15340;SDS011;7770;52.158;5.372;2023-08-30T14:21:53;6.27;;;2.97;;
15340;SDS011;7770;52.158;5.372;2023-08-30T14:24:41;5.27;;;3.40;;
15340;SDS011;7770;52.158;5.372;2023-08-30T14:27:27;5.80;;;3.43;;
15340;SDS011;7770;52.158;5.372;2023-08-30T14:30:13;5.50;;;3.30;;
15340;SDS011;7770;52.158;5.372;2023-08-30T14:33:00;6.63;;;3.90;;
15340;SDS011;7770;52.158;5.372;2023-08-30T14:35:46;8.00;;;3.60;;
15340;SDS011;7770;52.158;5.372;2023-08-30T14:38:32;7.67;;;3.83;;
15340;SDS011;7770;52.158;5.372;2023-08-30T14:41:18;6.13;;;4.13;;
15340;SDS011;7770;52.158;5.372;2023-08-30T14:44:04;9.00;;;4.27;;
15340;SDS011;7770;52.158;5.372;2023-08-30T14:46:50;6.70;;;3.60;;
15340;SDS011;7770;52.158;5.372;2023-08-30T14:49:37;7.60;;;4.00;;
15340;SDS011;7770;52.158;5.372;2023-08-30T14:52:23;5.30;;;3.20;;
15340;SDS011;7770;52.158;5.372;2023-08-30T14:55:09;6.83;;;3.30;;
15340;SDS011;7770;52.158;5.372;2023-08-30T14:57:55;5.07;;;3.00;;
15340;SDS011;7770;52.158;5.372;2023-08-30T15:00:41;4.73;;;2.80;;
15340;SDS011;7770;52.158;5.372;2023-08-30T15:03:27;5.00;;;3.10;;
15340;SDS011;7770;52.158;5.372;2023-08-30T15:06:13;7.00;;;3.57;;
15340;SDS011;7770;52.158;5.372;2023-08-30T15:08:59;5.80;;;3.60;;
15340;SDS011;7770;52.158;5.372;2023-08-30T15:11:45;4.63;;;3.00;;
15340;SDS011;7770;52.158;5.372;2023-08-30T15:14:32;5.00;;;2.63;;
15340;SDS011;7770;52.158;5.372;2023-08-30T15:17:19;7.13;;;2.90;;
15340;SDS011;7770;52.158;5.372;2023-08-30T15:20:08;5.13;;;2.67;;
15340;SDS011;7770;52.158;5.372;2023-08-30T15:22:54;5.53;;;2.63;;
15340;SDS011;7770;52.158;5.372;2023-08-30T15:25:41;6.30;;;2.90;;
15340;SDS011;7770;52.158;5.372;2023-08-30T15:28:34;5.83;;;2.73;;
15340;SDS011;7770;52.158;5.372;2023-08-30T15:31:20;4.17;;;2.63;;
15340;SDS011;7770;52.158;5.372;2023-08-30T15:34:06;6.03;;;3.00;;
15340;SDS011;7770;52.158;5.372;2023-08-30T15:36:52;4.40;;;2.33;;
15340;SDS011;7770;52.158;5.372;2023-08-30T15:39:39;6.20;;;2.63;;
15340;SDS011;7770;52.158;5.372;2023-08-30T15:42:26;5.70;;;2.90;;
15340;SDS011;7770;52.158;5.372;2023-08-30T15:45:12;10.60;;;6.43;;
15340;SDS011;7770;52.158;5.372;2023-08-30T15:47:58;5.97;;;3.53;;
15340;SDS011;7770;52.158;5.372;2023-08-30T15:50:44;4.40;;;2.40;;
15340;SDS011;7770;52.158;5.372;2023-08-30T15:53:30;5.83;;;2.50;;
15340;SDS011;7770;52.158;5.372;2023-08-30T15:56:16;6.53;;;3.27;;
15340;SDS011;7770;52.158;5.372;2023-08-30T15:59:02;6.43;;;3.00;;
15340;SDS011;7770;52.158;5.372;2023-08-30T16:01:49;5.07;;;2.77;;
15340;SDS011;7770;52.158;5.372;2023-08-30T16:04:35;7.80;;;3.50;;
15340;SDS011;7770;52.158;5.372;2023-08-30T16:07:21;6.00;;;3.53;;
15340;SDS011;7770;52.158;5.372;2023-08-30T16:10:07;5.43;;;3.30;;
15340;SDS011;7770;52.158;5.372;2023-08-30T16:12:54;7.30;;;3.43;;
15340;SDS011;7770;52.158;5.372;2023-08-30T16:15:40;7.50;;;3.13;;
15340;SDS011;7770;52.158;5.372;2023-08-30T16:18:26;8.40;;;3.40;;
15340;SDS011;7770;52.158;5.372;2023-08-30T16:21:14;7.97;;;3.50;;
15340;SDS011;7770;52.158;5.372;2023-08-30T16:24:00;5.87;;;3.33;;
15340;SDS011;7770;52.158;5.372;2023-08-30T16:26:46;7.90;;;3.87;;
15340;SDS011;7770;52.158;5.372;2023-08-30T16:29:33;9.83;;;3.73;;
15340;SDS011;7770;52.158;5.372;2023-08-30T16:32:19;5.53;;;3.40;;
15340;SDS011;7770;52.158;5.372;2023-08-30T16:35:05;6.70;;;3.40;;
15340;SDS011;7770;52.158;5.372;2023-08-30T16:37:52;5.47;;;3.50;;
15340;SDS011;7770;52.158;5.372;2023-08-30T16:40:38;7.77;;;3.40;;
15340;SDS011;7770;52.158;5.372;2023-08-30T16:43:24;8.30;;;3.40;;